createdAt,value
2018-03-03T00:00:50.428Z,36.30
2018-03-03T00:01:50.311Z,37.60
2018-03-03T00:03:43.188Z,36.90
2018-03-03T00:04:43.057Z,37.90
2018-03-03T00:06:35.917Z,37.50
2018-03-03T00:07:35.815Z,37.90
2018-03-03T00:09:28.694Z,38.80
2018-03-03T00:10:28.569Z,38.00
2018-03-03T00:12:21.450Z,37.30
2018-03-03T00:13:21.310Z,38.00
2018-03-03T00:15:14.185Z,38.30
2018-03-03T00:16:14.062Z,38.40
2018-03-03T00:18:06.929Z,37.50
2018-03-03T00:19:06.806Z,36.80
2018-03-03T00:20:59.669Z,38.10
2018-03-03T00:21:59.557Z,37.50
2018-03-03T00:23:52.418Z,37.10
2018-03-03T00:24:52.313Z,37.70
2018-03-03T00:26:45.265Z,36.80
2018-03-03T00:27:45.065Z,37.10
2018-03-03T00:29:37.932Z,37.30
2018-03-03T00:30:37.802Z,37.20
2018-03-03T00:32:30.690Z,37.20
2018-03-03T00:33:30.560Z,36.30
2018-03-03T00:35:23.446Z,36.40
2018-03-03T00:36:23.295Z,37.20
2018-03-03T00:38:16.179Z,37.20
2018-03-03T00:39:16.042Z,37.60
2018-03-03T00:41:08.951Z,37.40
2018-03-03T00:42:08.805Z,36.50
2018-03-03T00:44:01.703Z,37.20
2018-03-03T00:45:01.557Z,36.30
2018-03-03T00:46:54.418Z,36.40
2018-03-03T00:47:54.296Z,37.10
2018-03-03T00:49:47.178Z,37.90
2018-03-03T00:50:47.045Z,37.90
2018-03-03T00:52:39.941Z,37.30
2018-03-03T00:53:39.794Z,37.40
2018-03-03T00:55:32.686Z,37.00
2018-03-03T00:56:32.553Z,37.10
2018-03-03T00:58:25.421Z,37.10
2018-03-03T00:59:25.306Z,36.50
2018-03-03T01:01:18.175Z,38.00
2018-03-03T01:02:18.045Z,38.30
2018-03-03T01:04:11.143Z,37.40
2018-03-03T01:05:11.037Z,37.40
2018-03-03T01:07:03.909Z,36.90
2018-03-03T01:08:03.762Z,36.20
2018-03-03T01:09:56.580Z,37.80
2018-03-03T01:10:56.422Z,36.90
2018-03-03T01:12:49.374Z,37.10
2018-03-03T01:13:49.258Z,37.60
2018-03-03T01:15:42.593Z,37.20
2018-03-03T01:16:41.999Z,36.90
2018-03-03T01:18:34.872Z,37.00
2018-03-03T01:19:34.790Z,36.40
2018-03-03T01:21:27.614Z,39.00
2018-03-03T01:22:27.578Z,37.80
2018-03-03T01:24:20.403Z,38.10
2018-03-03T01:25:20.279Z,36.70
2018-03-03T01:27:13.119Z,37.20
2018-03-03T01:28:12.999Z,38.40
2018-03-03T01:30:05.906Z,37.70
2018-03-03T01:31:05.743Z,38.90
2018-03-03T01:32:58.613Z,37.60
2018-03-03T01:33:58.560Z,37.80
2018-03-03T01:35:51.383Z,38.40
2018-03-03T01:36:51.254Z,37.70
2018-03-03T01:38:44.139Z,39.00
2018-03-03T01:39:44.024Z,39.40
2018-03-03T01:41:38.439Z,38.20
2018-03-03T01:42:37.912Z,38.30
2018-03-03T01:44:30.674Z,38.00
2018-03-03T01:45:30.556Z,37.70
2018-03-03T01:47:23.334Z,37.00
2018-03-03T01:48:23.230Z,38.00
2018-03-03T01:50:16.087Z,38.90
2018-03-03T01:51:15.956Z,38.00
2018-03-03T01:53:08.854Z,37.90
2018-03-03T01:54:08.705Z,38.10
2018-03-03T01:56:01.460Z,39.40
2018-03-03T01:57:01.432Z,39.10
2018-03-03T01:58:54.415Z,39.10
2018-03-03T01:59:54.321Z,37.70
2018-03-03T02:01:47.185Z,38.30
2018-03-03T02:02:47.173Z,37.80
2018-03-03T02:04:39.948Z,37.90
2018-03-03T02:05:39.896Z,40.10
2018-03-03T02:07:33.211Z,39.00
2018-03-03T02:08:33.117Z,38.90
2018-03-03T02:10:25.931Z,39.20
2018-03-03T02:11:25.795Z,39.90
2018-03-03T02:13:19.740Z,39.50
2018-03-03T02:14:19.635Z,38.80
2018-03-03T02:16:12.529Z,41.10
2018-03-03T02:17:12.334Z,40.20
2018-03-03T02:19:05.325Z,40.10
2018-03-03T02:20:05.164Z,39.40
2018-03-03T02:21:58.041Z,38.60
2018-03-03T02:22:57.996Z,38.80
2018-03-03T02:24:51.270Z,38.60
2018-03-03T02:25:50.669Z,38.20
2018-03-03T02:27:43.547Z,39.00
2018-03-03T02:28:43.424Z,38.50
2018-03-03T02:30:36.159Z,39.80
2018-03-03T02:31:36.066Z,39.50
2018-03-03T02:33:28.964Z,38.70
2018-03-03T02:34:28.814Z,41.10
2018-03-03T02:36:22.206Z,39.20
2018-03-03T02:37:21.591Z,38.70
2018-03-03T02:39:14.497Z,40.20
2018-03-03T02:40:14.317Z,40.00
2018-03-03T02:42:07.245Z,38.80
2018-03-03T02:43:07.193Z,39.40
2018-03-03T02:45:00.455Z,39.10
2018-03-03T02:45:59.797Z,39.70
2018-03-03T02:47:52.963Z,40.10
2018-03-03T02:48:52.560Z,39.80
2018-03-03T02:50:45.468Z,38.60
2018-03-03T02:51:45.312Z,39.80
2018-03-03T02:53:38.721Z,39.10
2018-03-03T02:54:38.660Z,38.70
2018-03-03T02:56:31.929Z,39.60
2018-03-03T02:57:31.326Z,40.20
2018-03-03T02:59:24.235Z,38.90
2018-03-03T03:00:24.074Z,39.90
2018-03-03T03:02:16.961Z,39.40
2018-03-03T03:03:16.825Z,39.80
2018-03-03T03:05:10.065Z,39.30
2018-03-03T03:06:09.557Z,40.70
2018-03-03T03:08:02.472Z,38.80
2018-03-03T03:09:02.325Z,39.30
2018-03-03T03:10:55.281Z,38.80
2018-03-03T03:11:55.097Z,38.60
2018-03-03T03:13:47.928Z,40.10
2018-03-03T03:14:47.830Z,40.10
2018-03-03T03:16:40.711Z,40.00
2018-03-03T03:17:40.590Z,40.00
2018-03-03T03:19:33.531Z,38.80
2018-03-03T03:20:33.335Z,39.00
2018-03-03T03:22:26.297Z,38.50
2018-03-03T03:23:26.137Z,39.50
2018-03-03T03:25:19.451Z,41.40
2018-03-03T03:26:19.413Z,40.50
2018-03-03T03:28:12.715Z,40.10
2018-03-03T03:29:12.571Z,39.40
2018-03-03T03:31:05.435Z,39.70
2018-03-03T03:32:05.325Z,39.20
2018-03-03T03:33:58.198Z,39.80
2018-03-03T03:34:58.076Z,39.60
2018-03-03T03:36:50.955Z,40.10
2018-03-03T03:37:50.822Z,39.70
2018-03-03T03:39:44.197Z,39.40
2018-03-03T03:40:43.779Z,38.60
2018-03-03T03:42:36.652Z,38.20
2018-03-03T03:43:36.541Z,39.30
2018-03-03T03:45:29.407Z,36.30
2018-03-03T03:46:29.273Z,37.40
2018-03-03T03:48:22.143Z,35.60
2018-03-03T03:49:22.029Z,36.70
2018-03-03T03:51:14.911Z,39.80
2018-03-03T03:52:14.769Z,37.30
2018-03-03T03:54:07.616Z,36.80
2018-03-03T03:55:07.419Z,37.00
2018-03-03T03:57:00.497Z,35.60
2018-03-03T03:58:00.066Z,35.70
2018-03-03T03:59:53.235Z,35.90
2018-03-03T04:00:53.141Z,36.00
2018-03-03T04:02:45.902Z,36.40
2018-03-03T04:03:45.772Z,34.80
2018-03-03T04:05:38.541Z,36.00
2018-03-03T04:06:38.423Z,36.90
2018-03-03T04:08:31.199Z,35.10
2018-03-03T04:09:31.111Z,33.80
2018-03-03T04:11:24.032Z,34.40
2018-03-03T04:12:23.930Z,33.50
2018-03-03T04:14:16.713Z,34.10
2018-03-03T04:15:16.590Z,35.40
2018-03-03T04:17:09.329Z,34.10
2018-03-03T04:18:09.216Z,35.00
2018-03-03T04:20:02.314Z,33.30
2018-03-03T04:21:01.864Z,34.20
2018-03-03T04:22:54.629Z,33.00
2018-03-03T04:23:54.508Z,32.70
2018-03-03T04:25:47.284Z,33.30
2018-03-03T04:26:47.153Z,32.60
2018-03-03T04:28:39.912Z,34.20
2018-03-03T04:29:39.800Z,34.80
2018-03-03T04:31:32.870Z,34.10
2018-03-03T04:32:32.482Z,34.20
2018-03-03T04:34:25.218Z,33.70
2018-03-03T04:35:25.112Z,32.70
2018-03-03T04:37:17.874Z,34.20
2018-03-03T04:38:17.765Z,33.10
2018-03-03T04:40:10.512Z,33.90
2018-03-03T04:41:10.398Z,33.40
2018-03-03T04:43:03.195Z,33.30
2018-03-03T04:44:03.067Z,33.50
2018-03-03T04:45:55.808Z,33.90
2018-03-03T04:46:56.273Z,33.60
2018-03-03T04:48:48.477Z,33.60
2018-03-03T04:49:48.330Z,33.90
2018-03-03T04:51:41.114Z,34.10
2018-03-03T04:52:41.008Z,34.20
2018-03-03T04:54:33.776Z,34.20
2018-03-03T04:55:33.630Z,34.20
2018-03-03T04:57:26.402Z,34.00
2018-03-03T04:58:26.279Z,33.00
2018-03-03T05:00:19.050Z,34.50
2018-03-03T05:01:18.920Z,34.20
2018-03-03T05:03:11.691Z,34.80
2018-03-03T05:04:11.569Z,35.10
2018-03-03T05:06:04.395Z,33.60
2018-03-03T05:07:04.222Z,33.30
2018-03-03T05:08:56.976Z,33.80
2018-03-03T05:09:56.860Z,33.70
2018-03-03T05:11:49.648Z,35.10
2018-03-03T05:12:49.515Z,33.40
2018-03-03T05:14:42.478Z,34.80
2018-03-03T05:15:42.356Z,34.20
2018-03-03T05:17:35.130Z,34.50
2018-03-03T05:18:35.009Z,35.00
2018-03-03T05:20:28.802Z,33.70
2018-03-03T05:21:28.672Z,33.30
2018-03-03T05:23:21.500Z,34.60
2018-03-03T05:24:22.039Z,34.20
2018-03-03T05:26:15.065Z,33.60
2018-03-03T05:27:13.976Z,34.60
2018-03-03T05:29:06.761Z,35.10
2018-03-03T05:30:06.618Z,34.40
2018-03-03T05:31:59.412Z,34.30
2018-03-03T05:32:59.263Z,34.30
2018-03-03T05:34:52.571Z,33.60
2018-03-03T05:35:52.433Z,33.90
2018-03-03T05:37:45.224Z,34.50
2018-03-03T05:38:45.070Z,34.60
2018-03-03T05:40:37.848Z,33.80
2018-03-03T05:41:37.730Z,34.10
2018-03-03T05:43:31.139Z,35.00
2018-03-03T05:44:30.985Z,34.70
2018-03-03T05:46:23.765Z,35.20
2018-03-03T05:47:23.661Z,34.70
2018-03-03T05:49:16.411Z,34.60
2018-03-03T05:50:16.347Z,34.30
2018-03-03T05:52:09.051Z,35.00
2018-03-03T05:53:08.926Z,35.40
2018-03-03T05:55:01.699Z,36.00
2018-03-03T05:56:01.567Z,34.40
2018-03-03T05:57:54.369Z,35.10
2018-03-03T05:58:54.217Z,36.40
2018-03-03T06:00:46.983Z,36.00
2018-03-03T06:01:46.883Z,35.90
2018-03-03T06:03:39.641Z,37.50
2018-03-03T06:04:39.523Z,37.30
2018-03-03T06:06:32.800Z,36.40
2018-03-03T06:07:32.695Z,38.00
2018-03-03T06:09:25.449Z,37.00
2018-03-03T06:10:25.317Z,36.70
2018-03-03T06:12:18.077Z,35.80
2018-03-03T06:13:17.967Z,37.80
2018-03-03T06:15:10.763Z,35.60
2018-03-03T06:16:10.609Z,36.30
2018-03-03T06:18:03.378Z,35.60
2018-03-03T06:19:03.291Z,35.80
2018-03-03T06:20:56.029Z,35.80
2018-03-03T06:21:55.918Z,35.80
2018-03-03T06:23:48.675Z,35.50
2018-03-03T06:24:48.552Z,35.30
2018-03-03T06:26:41.331Z,35.90
2018-03-03T06:27:42.168Z,35.30
2018-03-03T06:29:33.965Z,35.70
2018-03-03T06:30:33.879Z,35.20
2018-03-03T06:32:27.550Z,36.20
2018-03-03T06:33:27.109Z,35.80
2018-03-03T06:35:19.867Z,35.70
2018-03-03T06:36:19.759Z,35.30
2018-03-03T06:38:13.151Z,35.20
2018-03-03T06:39:13.035Z,36.50
2018-03-03T06:41:05.780Z,36.50
2018-03-03T06:42:05.670Z,35.90
2018-03-03T06:43:58.441Z,35.20
2018-03-03T06:44:58.308Z,35.70
2018-03-03T06:47:12.788Z,35.70
2018-03-03T06:48:12.666Z,36.00
2018-03-03T06:50:05.980Z,35.60
2018-03-03T06:51:05.829Z,35.40
2018-03-03T06:52:58.590Z,34.60
2018-03-03T06:53:58.473Z,35.10
2018-03-03T06:55:51.263Z,35.20
2018-03-03T06:56:51.117Z,35.60
2018-03-03T06:58:43.877Z,35.80
2018-03-03T06:59:43.771Z,36.00
2018-03-03T07:01:37.063Z,35.60
2018-03-03T07:02:36.950Z,36.80
2018-03-03T07:04:29.711Z,35.70
2018-03-03T07:05:29.584Z,35.30
2018-03-03T07:07:22.372Z,34.20
2018-03-03T07:08:22.220Z,35.40
2018-03-03T07:10:15.009Z,35.90
2018-03-03T07:11:14.880Z,35.70
2018-03-03T07:13:08.168Z,36.00
2018-03-03T07:14:08.040Z,36.90
2018-03-03T07:16:00.816Z,34.80
2018-03-03T07:17:00.686Z,36.00
2018-03-03T07:18:53.576Z,36.00
2018-03-03T07:19:53.480Z,36.00
2018-03-03T07:21:48.383Z,35.20
2018-03-03T07:22:46.188Z,37.10
2018-03-03T07:24:38.965Z,35.60
2018-03-03T07:25:38.842Z,36.60
2018-03-03T07:27:32.326Z,35.50
2018-03-03T07:28:32.186Z,36.00
2018-03-03T07:30:25.035Z,35.80
2018-03-03T07:31:24.835Z,35.20
2018-03-03T07:33:17.608Z,35.40
2018-03-03T07:34:17.485Z,35.50
2018-03-03T07:36:10.336Z,35.30
2018-03-03T07:37:10.145Z,36.70
2018-03-03T07:39:02.892Z,35.70
2018-03-03T07:40:03.626Z,35.30
2018-03-03T07:41:56.101Z,35.50
2018-03-03T07:42:55.434Z,35.60
2018-03-03T07:44:48.184Z,35.80
2018-03-03T07:45:48.078Z,36.10
2018-03-03T07:47:40.840Z,38.20
2018-03-03T07:48:40.732Z,36.50
2018-03-03T07:50:33.478Z,35.50
2018-03-03T07:51:33.412Z,35.80
2018-03-03T07:53:26.144Z,36.50
2018-03-03T07:54:26.012Z,34.70
2018-03-03T07:56:18.779Z,37.00
2018-03-03T07:57:18.660Z,35.40
2018-03-03T07:59:11.445Z,35.10
2018-03-03T08:00:11.308Z,35.00
2018-03-03T08:02:04.065Z,36.80
2018-03-03T08:03:03.962Z,35.80
2018-03-03T08:04:56.755Z,36.30
2018-03-03T08:05:56.600Z,35.70
2018-03-03T08:07:49.376Z,34.90
2018-03-03T08:08:49.256Z,36.10
2018-03-03T08:10:42.022Z,34.70
2018-03-03T08:11:41.898Z,34.60
2018-03-03T08:13:34.654Z,35.00
2018-03-03T08:14:34.542Z,35.30
2018-03-03T08:16:27.948Z,36.00
2018-03-03T08:17:27.803Z,36.00
2018-03-03T08:19:20.666Z,35.90
2018-03-03T08:20:20.566Z,35.10
2018-03-03T08:22:13.347Z,35.60
2018-03-03T08:23:13.203Z,36.10
2018-03-03T08:25:05.962Z,34.60
2018-03-03T08:26:05.912Z,36.00
2018-03-03T08:27:58.660Z,34.80
2018-03-03T08:28:58.523Z,36.00
2018-03-03T08:30:51.361Z,35.70
2018-03-03T08:31:51.261Z,36.80
2018-03-03T08:33:44.016Z,35.50
2018-03-03T08:34:43.888Z,35.80
2018-03-03T08:36:36.653Z,36.10
2018-03-03T08:37:36.546Z,36.90
2018-03-03T08:39:29.325Z,36.30
2018-03-03T08:40:29.196Z,35.70
2018-03-03T08:42:22.043Z,34.80
2018-03-03T08:43:21.952Z,35.90
2018-03-03T08:45:14.856Z,36.20
2018-03-03T08:46:14.602Z,36.20
2018-03-03T08:48:07.340Z,37.20
2018-03-03T08:49:07.222Z,35.70
2018-03-03T08:50:59.999Z,36.60
2018-03-03T08:51:59.880Z,36.70
2018-03-03T08:53:52.648Z,36.70
2018-03-03T08:54:52.531Z,36.50
2018-03-03T08:56:45.566Z,36.50
2018-03-03T08:57:45.168Z,35.70
2018-03-03T08:59:37.936Z,36.90
2018-03-03T09:00:37.837Z,37.00
2018-03-03T09:02:30.585Z,36.10
2018-03-03T09:03:30.466Z,36.00
2018-03-03T09:05:23.334Z,35.50
2018-03-03T09:06:23.227Z,36.60
2018-03-03T09:08:15.985Z,36.90
2018-03-03T09:09:15.859Z,36.90
2018-03-03T09:11:08.622Z,36.90
2018-03-03T09:12:08.510Z,37.60
2018-03-03T09:14:01.298Z,37.80
2018-03-03T09:15:01.155Z,36.50
2018-03-03T09:16:53.915Z,36.90
2018-03-03T09:17:53.805Z,37.00
2018-03-03T09:19:47.150Z,36.10
2018-03-03T09:20:46.552Z,36.70
2018-03-03T09:22:40.340Z,36.70
2018-03-03T09:23:40.236Z,37.00
2018-03-03T09:25:33.094Z,37.20
2018-03-03T09:26:33.024Z,36.80
2018-03-03T09:28:25.733Z,36.20
2018-03-03T09:29:25.651Z,37.20
2018-03-03T09:31:18.409Z,36.80
2018-03-03T09:32:18.286Z,37.10
2018-03-03T09:34:11.151Z,46.00
2018-03-03T09:35:12.007Z,45.30
2018-03-03T09:37:04.398Z,37.80
2018-03-03T09:38:04.279Z,36.50
2018-03-03T09:39:57.072Z,37.80
2018-03-03T09:40:56.939Z,36.90
2018-03-03T09:42:50.046Z,37.40
2018-03-03T09:43:49.677Z,37.30
2018-03-03T09:45:42.548Z,37.50
2018-03-03T09:46:42.430Z,37.70
2018-03-03T09:48:35.296Z,37.70
2018-03-03T09:49:35.182Z,38.00
2018-03-03T09:51:27.953Z,37.60
2018-03-03T09:52:27.822Z,37.30
2018-03-03T09:54:20.603Z,37.60
2018-03-03T09:55:20.475Z,36.60
2018-03-03T09:57:13.359Z,38.20
2018-03-03T09:58:13.234Z,38.00
2018-03-03T10:00:06.035Z,38.30
2018-03-03T10:01:05.871Z,37.40
2018-03-03T10:02:58.627Z,38.10
2018-03-03T10:03:58.514Z,38.80
2018-03-03T10:05:51.395Z,38.50
2018-03-03T10:06:51.269Z,37.70
2018-03-03T10:08:44.030Z,37.20
2018-03-03T10:09:43.922Z,37.50
2018-03-03T10:11:36.724Z,38.40
2018-03-03T10:12:36.561Z,38.20
2018-03-03T10:14:29.438Z,38.70
2018-03-03T10:15:29.308Z,38.90
2018-03-03T10:17:22.185Z,38.60
2018-03-03T10:18:22.057Z,37.70
2018-03-03T10:20:14.855Z,38.10
2018-03-03T10:21:14.709Z,37.40
2018-03-03T10:23:07.654Z,38.20
2018-03-03T10:24:07.463Z,37.50
2018-03-03T10:26:00.350Z,37.70
2018-03-03T10:27:00.205Z,38.80
2018-03-03T10:28:53.103Z,38.10
2018-03-03T10:29:52.959Z,37.40
2018-03-03T10:31:45.911Z,39.00
2018-03-03T10:32:45.723Z,39.30
2018-03-03T10:34:38.601Z,37.80
2018-03-03T10:35:38.466Z,37.70
2018-03-03T10:37:31.315Z,36.90
2018-03-03T10:38:31.209Z,38.60
2018-03-03T10:40:24.093Z,38.20
2018-03-03T10:41:23.952Z,37.80
2018-03-03T10:43:17.117Z,38.30
2018-03-03T10:44:17.016Z,38.30
2018-03-03T10:46:09.906Z,37.90
2018-03-03T10:47:09.769Z,37.50
2018-03-03T10:49:02.648Z,38.20
2018-03-03T10:50:02.532Z,37.90
2018-03-03T10:51:55.379Z,37.20
2018-03-03T10:52:55.264Z,38.60
2018-03-03T10:54:48.157Z,36.70
2018-03-03T10:55:48.014Z,37.50
2018-03-03T10:57:41.049Z,38.90
2018-03-03T10:58:40.707Z,36.70
2018-03-03T11:00:33.508Z,37.30
2018-03-03T11:01:33.411Z,37.10
2018-03-03T11:03:26.298Z,36.40
2018-03-03T11:04:26.184Z,37.00
2018-03-03T11:06:19.022Z,36.40
2018-03-03T11:07:18.903Z,38.80
2018-03-03T11:09:12.091Z,36.20
2018-03-03T11:10:12.008Z,36.50
2018-03-03T11:12:04.818Z,36.00
2018-03-03T11:13:04.714Z,37.20
2018-03-03T11:14:57.608Z,37.10
2018-03-03T11:15:57.550Z,37.00
2018-03-03T11:17:50.847Z,36.90
2018-03-03T11:18:50.222Z,37.00
2018-03-03T11:20:43.152Z,36.30
2018-03-03T11:21:42.975Z,37.30
2018-03-03T11:23:35.848Z,37.10
2018-03-03T11:24:35.712Z,36.50
2018-03-03T11:26:28.586Z,36.50
2018-03-03T11:27:28.519Z,37.40
2018-03-03T11:29:21.390Z,37.30
2018-03-03T11:30:21.225Z,37.50
2018-03-03T11:32:14.096Z,37.10
2018-03-03T11:33:13.980Z,37.30
2018-03-03T11:35:06.883Z,37.60
2018-03-03T11:36:06.720Z,37.10
2018-03-03T11:37:59.624Z,37.80
2018-03-03T11:38:59.514Z,36.60
2018-03-03T11:40:52.742Z,37.50
2018-03-03T11:41:52.626Z,38.00
2018-03-03T11:43:45.591Z,38.20
2018-03-03T11:44:45.484Z,37.70
2018-03-03T11:46:38.336Z,38.50
2018-03-03T11:47:38.221Z,38.20
2018-03-03T11:49:31.122Z,37.90
2018-03-03T11:50:30.974Z,37.60
2018-03-03T11:52:23.822Z,37.90
2018-03-03T11:53:23.724Z,38.50
2018-03-03T11:55:16.614Z,39.30
2018-03-03T11:56:16.467Z,39.30
2018-03-03T11:58:09.834Z,39.70
2018-03-03T11:59:09.736Z,38.20
2018-03-03T12:01:02.598Z,38.50
2018-03-03T12:02:02.499Z,37.80
2018-03-03T12:03:55.493Z,37.60
2018-03-03T12:04:55.330Z,38.50
2018-03-03T12:06:48.218Z,36.70
2018-03-03T12:07:48.098Z,38.10
2018-03-03T12:09:40.940Z,38.40
2018-03-03T12:10:40.842Z,36.90
2018-03-03T12:12:33.710Z,37.90
2018-03-03T12:13:33.604Z,37.20
2018-03-03T12:15:26.451Z,38.60
2018-03-03T12:16:26.348Z,37.90
2018-03-03T12:18:19.297Z,40.80
2018-03-03T12:19:19.179Z,40.60
2018-03-03T12:21:12.053Z,36.80
2018-03-03T12:22:11.936Z,36.90
2018-03-03T12:24:04.812Z,39.00
2018-03-03T12:25:04.686Z,38.20
2018-03-03T12:26:57.544Z,38.70
2018-03-03T12:27:57.466Z,38.90
2018-03-03T12:29:50.499Z,36.50
2018-03-03T12:30:50.182Z,37.30
2018-03-03T12:32:43.044Z,38.70
2018-03-03T12:33:43.167Z,37.00
2018-03-03T12:35:35.948Z,38.70
2018-03-03T12:36:36.293Z,38.90
2018-03-03T12:38:28.679Z,38.40
2018-03-03T12:39:28.576Z,38.20
2018-03-03T12:41:21.322Z,36.70
2018-03-03T12:42:21.200Z,37.20
2018-03-03T12:44:14.073Z,37.80
2018-03-03T12:45:13.945Z,37.20
2018-03-03T12:47:06.825Z,36.50
2018-03-03T12:48:06.695Z,36.80
2018-03-03T12:49:59.567Z,36.50
2018-03-03T12:50:59.446Z,35.90
2018-03-03T12:52:52.297Z,36.90
2018-03-03T12:53:52.192Z,37.10
2018-03-03T12:55:45.049Z,37.00
2018-03-03T12:56:44.928Z,36.00
2018-03-03T12:58:37.899Z,36.30
2018-03-03T12:59:37.689Z,35.60
2018-03-03T13:01:30.557Z,37.20
2018-03-03T13:02:30.431Z,36.30
2018-03-03T13:04:23.339Z,36.90
2018-03-03T13:05:23.205Z,36.80
2018-03-03T13:07:16.026Z,36.40
2018-03-03T13:08:15.941Z,36.70
2018-03-03T13:10:08.805Z,36.20
2018-03-03T13:11:08.677Z,36.30
2018-03-03T13:13:01.552Z,36.60
2018-03-03T13:14:01.439Z,36.80
2018-03-03T13:15:54.418Z,36.80
2018-03-03T13:16:54.278Z,36.50
2018-03-03T13:18:47.136Z,35.70
2018-03-03T13:19:47.033Z,37.20
2018-03-03T13:21:39.889Z,36.10
2018-03-03T13:22:39.783Z,36.20
2018-03-03T13:24:32.695Z,35.70
2018-03-03T13:25:32.544Z,35.80
2018-03-03T13:27:25.392Z,36.80
2018-03-03T13:28:25.280Z,36.40
2018-03-03T13:30:18.165Z,35.70
2018-03-03T13:31:18.100Z,34.40
2018-03-03T13:33:11.186Z,35.40
2018-03-03T13:34:10.816Z,36.20
2018-03-03T13:36:03.653Z,35.80
2018-03-03T13:37:03.522Z,35.10
2018-03-03T13:38:56.413Z,35.10
2018-03-03T13:39:56.276Z,35.50
2018-03-03T13:41:49.127Z,34.90
2018-03-03T13:42:49.054Z,35.20
2018-03-03T13:44:41.895Z,35.20
2018-03-03T13:45:41.782Z,33.30
2018-03-03T13:47:34.627Z,34.40
2018-03-03T13:48:34.526Z,34.90
2018-03-03T13:50:27.391Z,34.80
2018-03-03T13:51:27.269Z,33.80
2018-03-03T13:53:20.129Z,34.80
2018-03-03T13:54:20.030Z,35.70
2018-03-03T13:56:12.890Z,35.10
2018-03-03T13:57:12.775Z,34.50
2018-03-03T13:59:05.630Z,34.90
2018-03-03T14:00:05.521Z,34.90
2018-03-03T14:01:58.297Z,35.00
2018-03-03T14:02:58.181Z,34.50
2018-03-03T14:04:51.027Z,34.90
2018-03-03T14:05:50.922Z,35.20
2018-03-03T14:07:43.816Z,33.80
2018-03-03T14:08:43.672Z,34.20
2018-03-03T14:10:36.524Z,35.30
2018-03-03T14:11:36.420Z,35.00
2018-03-03T14:13:30.020Z,34.50
2018-03-03T14:14:29.888Z,34.80
2018-03-03T14:16:22.797Z,33.70
2018-03-03T14:17:22.673Z,34.70
2018-03-03T14:19:15.419Z,35.70
2018-03-03T14:20:15.304Z,34.00
2018-03-03T14:22:08.135Z,34.30
2018-03-03T14:23:08.044Z,33.60
2018-03-03T14:25:00.931Z,34.70
2018-03-03T14:26:00.795Z,34.10
2018-03-03T14:27:54.136Z,33.90
2018-03-03T14:28:53.750Z,33.30
2018-03-03T14:30:46.604Z,34.50
2018-03-03T14:31:46.478Z,33.50
2018-03-03T14:33:39.334Z,34.30
2018-03-03T14:34:39.231Z,34.20
2018-03-03T14:36:32.100Z,33.00
2018-03-03T14:37:31.979Z,32.90
2018-03-03T14:39:24.841Z,32.80
2018-03-03T14:40:24.731Z,32.20
2018-03-03T14:42:17.611Z,32.60
2018-03-03T14:43:17.484Z,33.00
2018-03-03T14:45:10.366Z,32.60
2018-03-03T14:46:10.228Z,32.90
2018-03-03T14:48:03.150Z,31.90
2018-03-03T14:49:02.979Z,32.70
2018-03-03T14:50:55.833Z,31.90
2018-03-03T14:51:55.734Z,32.60
2018-03-03T14:53:48.597Z,30.80
2018-03-03T14:54:48.495Z,31.60
2018-03-03T14:56:41.330Z,31.30
2018-03-03T14:57:41.227Z,31.50
2018-03-03T14:59:34.111Z,30.20
2018-03-03T15:00:33.978Z,30.80
2018-03-03T15:02:26.842Z,30.30
2018-03-03T15:03:26.778Z,29.70
2018-03-03T15:05:19.592Z,29.90
2018-03-03T15:06:19.475Z,30.80
2018-03-03T15:08:12.353Z,29.60
2018-03-03T15:09:12.225Z,30.10
2018-03-03T15:11:05.107Z,28.80
2018-03-03T15:12:04.978Z,28.20
2018-03-03T15:13:57.836Z,29.10
2018-03-03T15:14:57.747Z,28.70
2018-03-03T15:16:50.652Z,29.20
2018-03-03T15:17:50.480Z,28.80
2018-03-03T15:19:43.750Z,29.40
2018-03-03T15:20:43.749Z,28.80
2018-03-03T15:22:36.526Z,28.70
2018-03-03T15:23:36.396Z,29.10
2018-03-03T15:25:29.268Z,29.30
2018-03-03T15:26:29.150Z,29.50
2018-03-03T15:28:22.125Z,29.30
2018-03-03T15:29:21.994Z,29.30
2018-03-03T15:31:14.848Z,28.90
2018-03-03T15:32:14.754Z,29.40
2018-03-03T15:34:07.739Z,29.10
2018-03-03T15:35:07.597Z,29.40
2018-03-03T15:37:00.446Z,30.10
2018-03-03T15:38:00.346Z,30.80
2018-03-03T15:39:53.711Z,30.10
2018-03-03T15:40:53.608Z,30.60
2018-03-03T15:42:46.556Z,30.30
2018-03-03T15:43:46.451Z,30.30
2018-03-03T15:45:39.315Z,29.70
2018-03-03T15:46:39.209Z,28.10
2018-03-03T15:48:32.060Z,29.40
2018-03-03T15:49:31.949Z,28.70
2018-03-03T15:51:24.835Z,28.60
2018-03-03T15:52:24.703Z,28.00
2018-03-03T15:54:17.556Z,28.50
2018-03-03T15:55:17.459Z,28.70
2018-03-03T15:57:10.340Z,28.10
2018-03-03T15:58:10.207Z,28.30
2018-03-03T16:00:03.069Z,27.70
2018-03-03T16:01:02.943Z,28.90
2018-03-03T16:02:55.847Z,26.30
2018-03-03T16:03:55.710Z,28.00
2018-03-03T16:05:48.559Z,25.50
2018-03-03T16:06:48.443Z,25.80
2018-03-03T16:08:41.323Z,25.00
2018-03-03T16:09:41.189Z,25.90
2018-03-03T16:11:34.048Z,23.60
2018-03-03T16:12:33.946Z,23.50
2018-03-03T16:14:26.852Z,23.20
2018-03-03T16:15:26.688Z,23.20
2018-03-03T16:17:19.562Z,23.00
2018-03-03T16:18:19.462Z,23.20
2018-03-03T16:20:12.301Z,23.20
2018-03-03T16:21:12.104Z,22.40
2018-03-03T16:23:04.960Z,22.10
2018-03-03T16:24:04.884Z,21.70
2018-03-03T16:25:57.719Z,22.40
2018-03-03T16:26:57.597Z,22.50
2018-03-03T16:28:51.027Z,21.40
2018-03-03T16:29:50.856Z,21.00
2018-03-03T16:31:44.881Z,21.70
2018-03-03T16:32:44.745Z,20.10
2018-03-03T16:34:38.089Z,21.10
2018-03-03T16:35:38.002Z,21.70
2018-03-03T16:37:38.374Z,21.00
2018-03-03T16:38:38.220Z,21.00
2018-03-03T16:40:32.616Z,21.20
2018-03-03T16:41:32.506Z,21.70
2018-03-03T16:43:25.370Z,21.20
2018-03-03T16:44:25.286Z,20.90
2018-03-03T16:46:19.636Z,20.80
2018-03-03T16:47:19.533Z,21.60
2018-03-03T16:49:12.444Z,21.20
2018-03-03T16:50:12.319Z,20.60
2018-03-03T16:52:05.233Z,21.30
2018-03-03T16:53:05.035Z,21.10
2018-03-03T16:54:58.444Z,20.80
2018-03-03T16:55:58.288Z,22.20
2018-03-03T16:57:51.153Z,21.70
2018-03-03T16:58:51.060Z,21.70
2018-03-03T17:00:43.941Z,20.90
2018-03-03T17:01:43.789Z,22.00
2018-03-03T17:03:36.660Z,21.20
2018-03-03T17:04:36.551Z,21.20
2018-03-03T17:06:30.435Z,21.20
2018-03-03T17:07:30.336Z,21.10
2018-03-03T17:09:23.697Z,22.10
2018-03-03T17:10:23.592Z,21.40
2018-03-03T17:12:16.477Z,21.60
2018-03-03T17:13:16.327Z,21.10
2018-03-03T17:15:09.397Z,22.00
2018-03-03T17:16:09.293Z,20.70
2018-03-03T17:18:02.414Z,21.40
2018-03-03T17:19:02.041Z,21.10
2018-03-03T17:20:54.914Z,21.60
2018-03-03T17:21:54.794Z,21.60
2018-03-03T17:23:47.684Z,21.50
2018-03-03T17:24:47.578Z,22.00
2018-03-03T17:26:40.396Z,21.30
2018-03-03T17:27:40.284Z,22.30
2018-03-03T17:29:33.854Z,22.10
2018-03-03T17:30:33.208Z,22.50
2018-03-03T17:32:25.897Z,20.90
2018-03-03T17:33:26.038Z,21.70
2018-03-03T17:35:18.679Z,21.70
2018-03-03T17:36:18.528Z,22.00
2018-03-03T17:38:11.448Z,22.70
2018-03-03T17:39:11.290Z,22.50
2018-03-03T17:41:04.287Z,21.60
2018-03-03T17:42:04.147Z,23.30
2018-03-03T17:43:57.010Z,22.60
2018-03-03T17:44:56.925Z,21.60
2018-03-03T17:46:50.018Z,21.70
2018-03-03T17:47:49.974Z,22.00
2018-03-03T17:49:42.798Z,22.40
2018-03-03T17:50:42.493Z,22.70
2018-03-03T17:52:35.827Z,23.10
2018-03-03T17:53:35.230Z,41.70
2018-03-03T17:55:28.082Z,24.80
2018-03-03T17:56:27.977Z,24.10
2018-03-03T17:58:20.871Z,23.50
2018-03-03T17:59:20.740Z,22.10
2018-03-03T18:01:14.078Z,23.10
2018-03-03T18:02:13.479Z,22.30
2018-03-03T18:04:06.363Z,24.00
2018-03-03T18:05:06.229Z,23.20
2018-03-03T18:06:59.088Z,22.90
2018-03-03T18:07:58.981Z,23.00
2018-03-03T18:09:52.063Z,23.60
2018-03-03T18:10:51.956Z,23.00
2018-03-03T18:12:45.303Z,23.40
2018-03-03T18:13:45.200Z,22.40
2018-03-03T18:15:38.070Z,23.10
2018-03-03T18:16:37.952Z,22.60
2018-03-03T18:18:30.842Z,23.80
2018-03-03T18:19:30.713Z,23.70
2018-03-03T18:21:23.580Z,24.60
2018-03-03T18:22:23.603Z,23.60
2018-03-03T18:24:16.308Z,23.30
2018-03-03T18:25:16.188Z,23.90
2018-03-03T18:27:09.079Z,23.20
2018-03-03T18:28:08.951Z,23.90
2018-03-03T18:30:01.913Z,23.70
2018-03-03T18:31:01.813Z,23.20
2018-03-03T18:32:54.653Z,22.90